TimeCST,TemperatureF,Dew PointF,Humidity,Sea Level PressureIn,VisibilityMPH,Wind Direction,Wind SpeedMPH,Gust SpeedMPH,PrecipitationIn,Events,Conditions,WindDirDegrees,DateUTC
12:15 AM,33.8,30.2,87,30.21,9.0,Calm,Calm,-,N/A,,Clear,0,2012-11-09 06:15:00
12:35 AM,33.8,30.2,87,30.21,10.0,Calm,Calm,-,N/A,,Clear,0,2012-11-09 06:35:00
12:55 AM,33.8,30.2,87,30.22,8.0,Calm,Calm,-,N/A,,Clear,0,2012-11-09 06:55:00
1:15 AM,33.8,30.2,87,30.22,8.0,Calm,Calm,-,N/A,,Clear,0,2012-11-09 07:15:00
1:35 AM,33.8,30.2,87,30.22,8.0,Calm,Calm,-,N/A,,Clear,0,2012-11-09 07:35:00
1:55 AM,32.0,28.4,87,30.22,8.0,Calm,Calm,-,N/A,,Clear,0,2012-11-09 07:55:00
2:15 AM,30.2,28.4,93,30.22,7.0,West,3.5,-,N/A,,Clear,260,2012-11-09 08:15:00
2:35 AM,30.2,28.4,93,30.22,7.0,Calm,Calm,-,N/A,,Clear,0,2012-11-09 08:35:00
2:55 AM,32.0,28.4,87,30.22,8.0,Calm,Calm,-,N/A,,Clear,0,2012-11-09 08:55:00
3:15 AM,30.2,28.4,93,30.23,7.0,Calm,Calm,-,N/A,,Clear,0,2012-11-09 09:15:00
3:35 AM,30.2,28.4,93,30.23,7.0,Calm,Calm,-,N/A,,Clear,0,2012-11-09 09:35:00
3:55 AM,30.2,28.4,93,30.23,5.0,Calm,Calm,-,N/A,,Clear,0,2012-11-09 09:55:00
4:15 AM,30.2,28.4,93,30.24,5.0,West,3.5,-,N/A,,Clear,260,2012-11-09 10:15:00
4:35 AM,30.2,28.4,93,30.25,7.0,Calm,Calm,-,N/A,,Clear,0,2012-11-09 10:35:00
4:55 AM,30.2,28.4,93,30.25,6.0,Calm,Calm,-,N/A,,Clear,0,2012-11-09 10:55:00
5:15 AM,30.2,26.6,86,30.26,7.0,West,3.5,-,N/A,,Clear,260,2012-11-09 11:15:00
5:55 AM,30.2,28.4,93,30.28,4.0,West,3.5,-,N/A,,Overcast,260,2012-11-09 11:55:00
6:15 AM,30.2,28.4,93,30.28,0.2,Calm,Calm,-,N/A,,Overcast,0,2012-11-09 12:15:00
6:35 AM,30.2,28.4,93,30.29,0.2,Calm,Calm,-,N/A,,Overcast,0,2012-11-09 12:35:00
6:55 AM,30.2,28.4,93,30.30,0.2,Calm,Calm,-,N/A,,Overcast,0,2012-11-09 12:55:00
7:15 AM,32.0,30.2,93,30.31,0.2,Calm,Calm,-,N/A,,Overcast,0,2012-11-09 13:15:00
7:35 AM,33.8,30.2,87,30.31,0.2,Calm,Calm,-,N/A,,Overcast,0,2012-11-09 13:35:00
7:55 AM,35.6,33.8,93,30.32,0.8,Calm,Calm,-,N/A,,Overcast,0,2012-11-09 13:55:00
8:15 AM,37.4,35.6,93,30.33,1.2,Calm,Calm,-,N/A,,Overcast,0,2012-11-09 14:15:00
8:55 AM,41.0,39.2,93,30.34,4.0,Calm,Calm,-,N/A,,Partly Cloudy,0,2012-11-09 14:55:00
9:15 AM,44.6,41.0,87,30.34,7.0,Calm,Calm,-,N/A,,Clear,0,2012-11-09 15:15:00
9:35 AM,46.4,41.0,81,30.34,10.0,Calm,Calm,-,N/A,,Clear,0,2012-11-09 15:35:00
9:55 AM,50.0,41.0,71,30.33,10.0,Calm,Calm,-,N/A,,Clear,0,2012-11-09 15:55:00
10:15 AM,51.8,41.0,67,30.33,10.0,Calm,Calm,-,N/A,,Clear,0,2012-11-09 16:15:00
10:35 AM,55.4,41.0,58,30.32,10.0,Calm,Calm,-,N/A,,Clear,0,2012-11-09 16:35:00
10:55 AM,55.4,39.2,54,30.31,10.0,Calm,Calm,-,N/A,,Clear,0,2012-11-09 16:55:00
11:15 AM,57.2,41.0,55,30.30,10.0,Calm,Calm,-,N/A,,Clear,0,2012-11-09 17:15:00
11:35 AM,59.0,39.2,48,30.29,10.0,Calm,Calm,-,N/A,,Clear,0,2012-11-09 17:35:00
11:55 AM,60.8,37.4,42,30.28,10.0,Calm,Calm,-,N/A,,Clear,0,2012-11-09 17:55:00
12:15 PM,62.6,39.2,42,30.27,10.0,Calm,Calm,-,N/A,,Clear,0,2012-11-09 18:15:00
12:35 PM,62.6,37.4,39,30.25,10.0,Calm,Calm,-,N/A,,Clear,0,2012-11-09 18:35:00
12:55 PM,64.4,39.2,40,30.24,10.0,Calm,Calm,-,N/A,,Clear,0,2012-11-09 18:55:00
1:15 PM,64.4,39.2,40,30.24,10.0,Calm,Calm,-,N/A,,Clear,0,2012-11-09 19:15:00
1:35 PM,66.2,39.2,37,30.23,10.0,Calm,Calm,-,N/A,,Clear,0,2012-11-09 19:35:00
1:55 PM,64.4,37.4,37,30.22,10.0,Calm,Calm,-,N/A,,Clear,0,2012-11-09 19:55:00
2:15 PM,66.2,33.8,30,30.22,10.0,Calm,Calm,-,N/A,,Clear,0,2012-11-09 20:15:00
2:35 PM,66.2,33.8,30,30.22,10.0,Calm,Calm,-,N/A,,Clear,0,2012-11-09 20:35:00
2:55 PM,66.2,33.8,30,30.21,10.0,ENE,3.5,-,N/A,,Clear,70,2012-11-09 20:55:00
3:15 PM,66.2,37.4,35,30.21,10.0,SE,3.5,-,N/A,,Clear,140,2012-11-09 21:15:00
3:35 PM,66.2,35.6,32,30.21,7.0,Calm,Calm,-,N/A,,Clear,0,2012-11-09 21:35:00
3:55 PM,62.6,37.4,39,30.21,10.0,Calm,Calm,-,N/A,,Clear,0,2012-11-09 21:55:00
4:15 PM,59.0,39.2,48,30.21,10.0,SE,3.5,-,N/A,,Clear,140,2012-11-09 22:15:00
4:35 PM,53.6,41.0,62,30.21,10.0,Calm,Calm,-,N/A,,Clear,0,2012-11-09 22:35:00
4:55 PM,55.4,39.2,54,30.21,10.0,Calm,Calm,-,N/A,,Clear,0,2012-11-09 22:55:00
5:15 PM,53.6,41.0,62,30.21,10.0,Calm,Calm,-,N/A,,Clear,0,2012-11-09 23:15:00
5:35 PM,51.8,39.2,62,30.22,10.0,Calm,Calm,-,N/A,,Clear,0,2012-11-09 23:35:00
5:55 PM,48.2,41.0,76,30.22,10.0,Calm,Calm,-,N/A,,Clear,0,2012-11-09 23:55:00
6:15 PM,48.2,39.2,71,30.22,10.0,Calm,Calm,-,N/A,,Clear,0,2012-11-10 00:15:00
6:35 PM,48.2,39.2,71,30.23,10.0,Calm,Calm,-,N/A,,Clear,0,2012-11-10 00:35:00
6:55 PM,46.4,39.2,76,30.23,10.0,Calm,Calm,-,N/A,,Clear,0,2012-11-10 00:55:00
7:15 PM,44.6,39.2,81,30.23,10.0,Calm,Calm,-,N/A,,Clear,0,2012-11-10 01:15:00
7:35 PM,42.8,39.2,87,30.23,10.0,Calm,Calm,-,N/A,,Clear,0,2012-11-10 01:35:00
7:55 PM,42.8,37.4,81,30.24,10.0,Calm,Calm,-,N/A,,Clear,0,2012-11-10 01:55:00
8:15 PM,42.8,39.2,87,30.24,10.0,Calm,Calm,-,N/A,,Clear,0,2012-11-10 02:15:00
8:35 PM,42.8,37.4,81,30.24,10.0,Calm,Calm,-,N/A,,Clear,0,2012-11-10 02:35:00
8:55 PM,41.0,37.4,87,30.25,10.0,Calm,Calm,-,N/A,,Clear,0,2012-11-10 02:55:00
9:15 PM,39.2,37.4,93,30.25,10.0,Calm,Calm,-,N/A,,Clear,0,2012-11-10 03:15:00
9:35 PM,39.2,35.6,87,30.25,10.0,Calm,Calm,-,N/A,,Clear,0,2012-11-10 03:35:00
9:55 PM,39.2,37.4,93,30.25,10.0,Calm,Calm,-,N/A,,Clear,0,2012-11-10 03:55:00
10:15 PM,39.2,35.6,87,30.25,8.0,Calm,Calm,-,N/A,,Clear,0,2012-11-10 04:15:00
10:35 PM,39.2,35.6,87,30.26,10.0,Calm,Calm,-,N/A,,Clear,0,2012-11-10 04:35:00
10:55 PM,39.2,35.6,87,30.25,9.0,Calm,Calm,-,N/A,,Clear,0,2012-11-10 04:55:00
11:15 PM,37.4,35.6,93,30.25,10.0,Calm,Calm,-,N/A,,Clear,0,2012-11-10 05:15:00
11:35 PM,37.4,33.8,87,30.26,10.0,Calm,Calm,-,N/A,,Clear,0,2012-11-10 05:35:00
11:55 PM,37.4,33.8,87,30.26,10.0,Calm,Calm,-,N/A,,Clear,0,2012-11-10 05:55:00